createdAt,value
2019-02-11T00:01:46.423Z,97044.31
2019-02-11T00:06:56.420Z,97047.48
2019-02-11T00:12:03.120Z,97034.45
2019-02-11T00:17:13.299Z,97045.89
2019-02-11T00:22:18.984Z,97046.55
2019-02-11T00:27:29.190Z,97045.66
2019-02-11T00:32:35.015Z,97047.66
2019-02-11T00:37:43.859Z,97038.09
2019-02-11T00:42:49.745Z,97038.09
2019-02-11T00:47:57.909Z,97051.61
2019-02-11T00:53:09.818Z,97058.86
2019-02-11T00:58:15.637Z,97071.33
2019-02-11T01:03:24.276Z,97073.82
2019-02-11T01:08:32.648Z,97081.61
2019-02-11T01:13:38.388Z,97083.02
2019-02-11T01:18:47.216Z,97105.23
2019-02-11T01:23:53.343Z,97122.78
2019-02-11T01:34:08.462Z,97134.80
2019-02-11T01:39:14.167Z,97124.86
2019-02-11T01:44:20.070Z,97125.31
2019-02-11T01:49:25.794Z,97143.63
2019-02-11T01:54:31.552Z,97143.63
2019-02-11T02:04:44.190Z,97128.08
2019-02-11T02:09:55.336Z,97147.94
2019-02-11T02:15:01.166Z,97173.30
2019-02-11T02:20:10.059Z,97190.10
2019-02-11T02:25:18.750Z,97249.48
2019-02-11T02:30:24.515Z,97249.48
2019-02-11T02:35:34.973Z,97239.83
2019-02-11T02:40:42.991Z,97250.98
2019-02-11T02:45:50.349Z,97253.80
2019-02-11T02:50:56.256Z,97264.02
2019-02-11T02:56:02.500Z,97264.44
2019-02-11T03:01:08.199Z,97282.03
2019-02-11T03:06:16.040Z,97299.99
2019-02-11T03:11:21.790Z,97298.55
2019-02-11T03:16:27.795Z,97292.42
2019-02-11T03:21:36.517Z,97309.21
2019-02-11T03:26:43.999Z,97316.97
2019-02-11T03:31:49.702Z,97332.60
2019-02-11T03:36:55.443Z,97350.34
2019-02-11T03:42:03.307Z,97371.13
2019-02-11T03:47:10.511Z,97388.67
2019-02-11T03:52:16.191Z,97406.47
2019-02-11T03:57:24.789Z,97436.72
2019-02-11T04:02:30.492Z,97449.56
2019-02-11T04:07:38.578Z,97456.70
2019-02-11T04:12:51.344Z,97479.96
2019-02-11T04:17:57.134Z,97502.24
2019-02-11T04:23:04.537Z,97512.52
2019-02-11T04:28:10.391Z,97520.17
2019-02-11T04:33:16.260Z,97530.27
2019-02-11T04:38:22.558Z,97518.89
2019-02-11T04:43:28.257Z,97543.62
2019-02-11T04:48:39.839Z,97552.29
2019-02-11T04:53:46.864Z,97580.79
2019-02-11T04:58:52.481Z,97581.28
2019-02-11T05:03:59.412Z,97600.53
2019-02-11T05:09:07.984Z,97617.09
2019-02-11T05:14:13.668Z,97621.53
2019-02-11T05:19:19.390Z,97626.73
2019-02-11T05:24:25.107Z,97627.02
2019-02-11T05:29:30.805Z,97654.66
2019-02-11T05:34:36.552Z,97647.36
2019-02-11T05:39:44.011Z,97663.90
2019-02-11T05:44:53.925Z,97696.77
2019-02-11T05:50:03.831Z,97703.91
2019-02-11T05:55:11.333Z,97713.82
2019-02-11T06:00:21.786Z,97717.24
2019-02-11T06:05:27.617Z,97733.20
2019-02-11T06:10:38.213Z,97736.94
2019-02-11T06:15:46.744Z,97758.88
2019-02-11T06:20:54.060Z,97767.00
2019-02-11T06:25:59.851Z,97799.38
2019-02-11T06:31:08.727Z,97805.36
2019-02-11T06:36:17.779Z,97828.94
2019-02-11T06:41:23.475Z,97831.46
2019-02-11T06:46:31.196Z,97855.20
2019-02-11T06:51:36.972Z,97856.16
2019-02-11T06:56:49.275Z,97869.84
2019-02-11T07:01:54.943Z,97881.70
2019-02-11T07:07:02.181Z,97896.34
2019-02-11T07:12:14.442Z,97903.58
2019-02-11T07:17:22.132Z,97919.91
2019-02-11T07:22:29.692Z,97926.72
2019-02-11T07:27:37.393Z,97935.33
2019-02-11T07:32:45.950Z,97943.30
2019-02-11T07:37:54.932Z,97959.64
2019-02-11T07:43:26.355Z,97962.69
2019-02-11T07:48:33.338Z,97968.50
2019-02-11T07:53:40.043Z,97985.07
2019-02-11T07:58:45.780Z,97985.07
2019-02-11T08:03:51.440Z,97997.44
2019-02-11T08:09:00.209Z,98001.31
2019-02-11T08:14:08.130Z,98010.26
2019-02-11T08:19:13.967Z,98019.98
2019-02-11T08:24:25.650Z,98023.11
2019-02-11T08:29:31.441Z,98052.91
2019-02-11T08:34:37.092Z,98054.64
2019-02-11T08:39:43.780Z,98054.64
2019-02-11T08:44:54.340Z,98078.23
2019-02-11T08:50:02.452Z,98082.14
2019-02-11T08:55:10.218Z,98082.14
2019-02-11T09:00:18.870Z,98091.34
2019-02-11T09:05:24.692Z,98088.55
2019-02-11T09:10:30.427Z,98099.47
2019-02-11T09:15:55.389Z,98111.84
2019-02-11T09:21:05.007Z,98108.44
2019-02-11T09:26:10.782Z,98134.61
2019-02-11T09:31:21.215Z,98134.61
2019-02-11T09:36:29.101Z,98160.08
2019-02-11T09:41:39.377Z,98162.36
2019-02-11T09:46:47.795Z,98187.09
2019-02-11T09:51:55.046Z,98197.67
2019-02-11T09:57:05.775Z,98205.55
2019-02-11T10:02:17.363Z,98205.55
2019-02-11T10:07:25.493Z,98213.42
2019-02-11T10:12:31.363Z,98216.95
2019-02-11T10:17:37.963Z,98242.05
2019-02-11T10:22:43.713Z,98242.05
2019-02-11T10:27:54.198Z,98251.03
2019-02-11T10:33:12.134Z,98262.91
2019-02-11T10:38:17.905Z,98262.91
2019-02-11T10:43:26.265Z,98276.64
2019-02-11T10:48:34.293Z,98284.30
2019-02-11T10:53:45.528Z,98288.50
2019-02-11T10:58:51.246Z,98290.86
2019-02-11T11:04:00.018Z,98283.66
2019-02-11T11:09:18.153Z,98295.80
2019-02-11T11:14:28.109Z,98300.42
2019-02-11T11:19:34.185Z,98306.84
2019-02-11T11:24:45.594Z,98307.80
2019-02-11T11:29:55.286Z,98313.12
2019-02-11T11:35:05.255Z,98322.71
2019-02-11T11:40:17.226Z,98325.33
2019-02-11T11:45:30.048Z,98331.45
2019-02-11T11:50:36.117Z,98343.66
2019-02-11T11:55:44.953Z,98322.14
2019-02-11T12:00:55.731Z,98355.18
2019-02-11T12:06:03.403Z,98358.37
2019-02-11T12:11:09.089Z,98379.83
2019-02-11T12:16:19.199Z,98377.41
2019-02-11T12:21:29.564Z,98384.61
2019-02-11T12:26:37.895Z,98399.25
2019-02-11T12:31:46.729Z,98407.81
2019-02-11T12:36:58.183Z,98461.05
2019-02-11T12:42:07.846Z,98489.72
2019-02-11T12:47:15.147Z,98494.27
2019-02-11T12:52:21.183Z,98481.09
2019-02-11T12:57:31.603Z,98487.52
2019-02-11T13:02:37.362Z,98492.37
2019-02-11T13:07:45.313Z,98506.42
2019-02-11T13:12:54.841Z,98506.52
2019-02-11T13:18:00.529Z,98506.52
2019-02-11T13:23:06.789Z,98541.97
2019-02-11T13:28:12.475Z,98541.97
2019-02-11T13:33:28.116Z,98570.03
2019-02-11T13:38:35.839Z,98562.08
2019-02-11T13:43:41.662Z,98560.80
2019-02-11T13:48:51.241Z,98571.17
2019-02-11T13:53:57.189Z,98585.69
2019-02-11T13:59:04.803Z,98607.09
2019-02-11T14:04:15.954Z,98595.05
2019-02-11T14:09:21.891Z,98609.94
2019-02-11T14:14:30.850Z,98613.75
2019-02-11T14:19:36.565Z,98623.91
2019-02-11T14:24:48.501Z,98620.62
2019-02-11T14:29:58.055Z,98639.94
2019-02-11T14:35:07.027Z,98648.95
2019-02-11T14:40:16.282Z,98661.08
2019-02-11T14:45:26.362Z,98666.80
2019-02-11T14:50:32.162Z,98672.77
2019-02-11T14:55:38.187Z,98680.73
2019-02-11T15:00:47.944Z,98691.13
2019-02-11T15:06:00.727Z,98691.63
2019-02-11T15:11:07.927Z,98715.80
2019-02-11T15:16:16.369Z,98713.95
2019-02-11T15:21:22.302Z,98731.60
2019-02-11T15:26:36.425Z,98750.56
2019-02-11T15:31:42.318Z,98746.69
2019-02-11T15:36:52.201Z,98750.99
2019-02-11T15:41:59.981Z,98750.99
2019-02-11T15:47:13.455Z,98782.45
2019-02-11T15:52:19.152Z,98789.61
2019-02-11T15:57:25.379Z,98812.97
2019-02-11T16:02:33.006Z,98812.97
2019-02-11T16:07:40.071Z,98831.47
2019-02-11T16:12:45.800Z,98829.72
2019-02-11T16:17:52.544Z,98851.29
2019-02-11T16:23:00.458Z,98850.87
2019-02-11T16:28:23.013Z,98869.88
2019-02-11T16:33:40.441Z,98872.48
2019-02-11T16:38:50.560Z,98912.03
2019-02-11T16:44:25.089Z,98940.92
2019-02-11T16:50:32.977Z,98944.59
2019-02-11T16:55:43.534Z,98970.89
2019-02-11T17:01:00.627Z,98980.98
2019-02-11T17:06:29.104Z,98984.11
2019-02-11T17:12:11.499Z,98984.11
2019-02-11T17:28:34.394Z,99052.63
2019-02-11T17:33:49.329Z,99057.18
2019-02-11T17:39:20.016Z,99068.85
2019-02-11T17:44:53.473Z,99077.66
2019-02-11T17:50:15.663Z,99106.80
2019-02-11T17:55:29.791Z,99115.73
2019-02-11T18:00:51.367Z,99123.63
2019-02-11T18:06:24.560Z,99135.42
2019-02-11T18:11:32.792Z,99153.58
2019-02-11T18:16:50.022Z,99173.38
2019-02-11T18:22:13.767Z,99180.95
2019-02-11T18:27:20.704Z,99196.95
2019-02-11T18:32:31.503Z,99201.71
2019-02-11T18:37:56.885Z,99203.50
2019-02-11T18:43:07.137Z,99202.34
2019-02-11T18:48:32.465Z,99222.12
2019-02-11T18:53:55.373Z,99221.54
2019-02-11T18:59:24.565Z,99235.06
2019-02-11T19:04:43.519Z,99255.91
2019-02-11T19:10:27.890Z,99264.75
2019-02-11T19:15:59.843Z,99267.13
2019-02-11T19:21:53.933Z,99281.20
2019-02-11T19:27:15.981Z,99287.84
2019-02-11T19:32:37.659Z,99308.76
2019-02-11T19:37:55.725Z,99325.84
2019-02-11T19:43:10.355Z,99329.05
2019-02-11T19:48:55.431Z,99368.42
2019-02-11T19:54:07.228Z,99368.50
2019-02-11T19:59:20.204Z,99378.91
2019-02-11T20:04:40.238Z,99393.47
2019-02-11T20:09:48.914Z,99403.41
2019-02-11T20:15:03.444Z,99419.38
2019-02-11T20:20:26.287Z,99422.49
2019-02-11T20:25:55.726Z,99427.75
2019-02-11T20:31:07.671Z,99447.85
2019-02-11T20:36:31.962Z,99442.53
2019-02-11T20:42:07.428Z,99438.16
2019-02-11T20:47:24.901Z,99454.55
2019-02-11T20:58:37.650Z,99462.09
2019-02-11T21:03:54.742Z,99467.29
2019-02-11T21:09:32.373Z,99477.59
2019-02-11T21:14:51.161Z,99496.43
2019-02-11T21:20:03.992Z,99492.45
2019-02-11T21:25:34.424Z,99506.91
2019-02-11T21:30:58.124Z,99522.02
2019-02-11T21:36:04.391Z,99534.82
2019-02-11T21:41:15.268Z,99524.92
2019-02-11T21:46:24.977Z,99534.69
2019-02-11T21:51:35.240Z,99535.61
2019-02-11T21:56:52.478Z,99548.61
2019-02-11T22:02:11.429Z,99565.27
2019-02-11T22:07:34.352Z,99563.41
2019-02-11T22:12:44.779Z,99563.47
2019-02-11T22:18:13.684Z,99563.15
2019-02-11T22:23:17.300Z,99564.33
2019-02-11T22:28:30.113Z,99562.73
2019-02-11T22:33:57.743Z,99563.82
2019-02-11T22:39:05.456Z,99577.29
2019-02-11T22:44:13.279Z,99586.98
2019-02-11T22:49:26.782Z,99594.28
2019-02-11T22:54:37.244Z,99594.34
2019-02-11T23:00:01.264Z,99615.80
2019-02-11T23:05:24.700Z,99624.55
2019-02-11T23:10:34.991Z,99630.59
2019-02-11T23:15:40.742Z,99639.23
2019-02-11T23:20:51.840Z,99635.24
2019-02-11T23:25:56.926Z,99646.42
2019-02-11T23:31:02.606Z,99656.42
2019-02-11T23:36:11.409Z,99658.30
2019-02-11T23:41:17.128Z,99658.56
2019-02-11T23:46:26.128Z,99675.70
